Time;durP1;ratioP1;P1;durP2;ratioP2;P2;SDS_P1;SDS_P2;PMS_P1;PMS_P2;Temp;Humidity;BMP_temperature;BMP_pressure;BME280_temperature;BME280_humidity;BME280_pressure;Samples;Min_cycle;Max_cycle;Signal;HPM_P1;HPM_P2
2022/10/28 00:02:22;;;;;;;10.93;5.70;;;;;;;;;;1680013;85;22176;-60
2022/10/28 00:04:48;;;;;;;8.43;5.78;;;;;;;;;;1685059;84;21068;-60
2022/10/28 00:07:15;;;;;;;9.00;5.00;;;;;;;;;;1680426;85;21032;-60
2022/10/28 00:09:41;;;;;;;11.48;5.45;;;;;;;;;;1680233;85;21080;-60
2022/10/28 00:12:09;;;;;;;7.60;5.33;;;;;;;;;;1689216;84;21528;-60
2022/10/28 00:14:36;;;;;;;8.83;5.47;;;;;;;;;;1686711;83;21064;-60
2022/10/28 00:17:03;;;;;;;8.93;5.72;;;;;;;;;;1680134;84;21088;-60
2022/10/28 00:19:29;;;;;;;8.15;4.97;;;;;;;;;;1680229;84;21056;-62
2022/10/28 00:21:56;;;;;;;7.12;4.87;;;;;;;;;;1680170;84;21052;-60
2022/10/28 00:24:22;;;;;;;9.73;5.50;;;;;;;;;;1680724;84;21041;-60
2022/10/28 00:26:48;;;;;;;7.87;5.20;;;;;;;;;;1698189;84;21594;-61
2022/10/28 00:29:16;;;;;;;7.53;4.90;;;;;;;;;;1690851;84;21040;-61
2022/10/28 00:31:42;;;;;;;8.13;5.08;;;;;;;;;;1680125;85;21029;-61
2022/10/28 00:34:10;;;;;;;9.10;5.80;;;;;;;;;;1682870;84;21048;-60
2022/10/28 00:36:38;;;;;;;8.43;5.25;;;;;;;;;;1680121;84;21587;-60
2022/10/28 00:39:06;;;;;;;9.00;5.20;;;;;;;;;;1680020;85;21112;-60
2022/10/28 00:41:33;;;;;;;8.05;5.22;;;;;;;;;;1679891;84;21088;-61
2022/10/28 00:44:02;;;;;;;9.50;5.40;;;;;;;;;;1681521;84;21512;-60
2022/10/28 00:46:31;;;;;;;8.23;4.87;;;;;;;;;;1680359;84;21587;-60
2022/10/28 00:49:04;;;;;;;9.65;5.50;;;;;;;;;;1687030;84;21147;-62
2022/10/28 00:51:31;;;;;;;7.05;5.03;;;;;;;;;;1702163;84;21115;-60
2022/10/28 00:53:57;;;;;;;10.65;4.87;;;;;;;;;;1722355;83;21068;-60
2022/10/28 00:56:25;;;;;;;9.58;4.83;;;;;;;;;;1760971;81;21098;-60
2022/10/28 00:58:52;;;;;;;8.33;5.10;;;;;;;;;;1741879;82;21558;-60
2022/10/28 01:01:18;;;;;;;10.48;6.00;;;;;;;;;;1741970;82;21047;-60
2022/10/28 01:03:44;;;;;;;8.65;5.70;;;;;;;;;;1754338;81;21050;-61
2022/10/28 01:06:11;;;;;;;10.30;6.00;;;;;;;;;;1765287;81;21585;-60
2022/10/28 01:08:37;;;;;;;11.08;6.17;;;;;;;;;;1742295;81;21042;-61
2022/10/28 01:11:05;;;;;;;11.43;6.53;;;;;;;;;;1748493;81;21048;-60
2022/10/28 01:13:39;;;;;;;9.98;5.60;;;;;;;;;;1764166;81;21062;-61
2022/10/28 01:16:07;;;;;;;12.03;6.05;;;;;;;;;;1713693;84;21118;-62
2022/10/28 01:18:38;;;;;;;8.83;5.75;;;;;;;;;;1714205;84;21035;-60
2022/10/28 01:21:23;;;;;;;7.62;5.25;;;;;;;;;;1711822;84;21112;-61
2022/10/28 01:23:54;;;;;;;11.25;6.12;;;;;;;;;;1724682;83;21037;-60
2022/10/28 01:26:38;;;;;;;11.28;6.33;;;;;;;;;;1760871;81;21573;-60
2022/10/28 01:29:08;;;;;;;16.35;9.23;;;;;;;;;;1742280;81;21047;-60
2022/10/28 01:31:47;;;;;;;17.10;8.25;;;;;;;;;;1741946;82;21110;-60
2022/10/28 01:34:32;;;;;;;10.35;6.10;;;;;;;;;;1742777;81;21059;-63
2022/10/28 01:37:12;;;;;;;15.40;7.90;;;;;;;;;;1742831;81;21035;-60
2022/10/28 01:39:56;;;;;;;11.40;6.22;;;;;;;;;;1742021;82;21565;-60
2022/10/28 01:42:30;;;;;;;12.50;6.97;;;;;;;;;;1742205;82;21126;-60
2022/10/28 01:45:03;;;;;;;11.60;6.75;;;;;;;;;;1748999;81;21019;-60
2022/10/28 01:47:50;;;;;;;14.20;7.17;;;;;;;;;;1766291;81;21098;-60
2022/10/28 01:50:27;;;;;;;14.47;7.08;;;;;;;;;;1768927;81;21027;-62
2022/10/28 01:52:53;;;;;;;14.43;8.15;;;;;;;;;;1752507;81;21097;-61
2022/10/28 01:55:29;;;;;;;12.20;7.47;;;;;;;;;;1762429;81;21062;-60
2022/10/28 01:57:56;;;;;;;13.00;7.22;;;;;;;;;;1756249;81;21058;-60
2022/10/28 02:00:22;;;;;;;14.38;7.58;;;;;;;;;;1766401;81;21123;-61
2022/10/28 02:05:48;;;;;;;12.50;7.65;;;;;;;;;;1772497;79;22430;-60
2022/10/28 02:08:20;;;;;;;10.80;7.20;;;;;;;;;;1784481;80;21602;-60
2022/10/28 02:10:56;;;;;;;11.95;6.45;;;;;;;;;;1784088;80;21033;-59
2022/10/28 02:13:24;;;;;;;12.13;6.62;;;;;;;;;;1783947;80;21041;-60
2022/10/28 02:15:53;;;;;;;10.75;6.85;;;;;;;;;;1784031;80;21045;-60
2022/10/28 02:18:38;;;;;;;10.90;6.15;;;;;;;;;;1784064;80;21097;-60
2022/10/28 02:21:05;;;;;;;10.48;5.90;;;;;;;;;;1784129;80;21063;-59
2022/10/28 02:23:37;;;;;;;14.18;6.35;;;;;;;;;;1784129;80;21059;-59
2022/10/28 02:26:11;;;;;;;12.78;6.45;;;;;;;;;;1784241;80;21042;-61
2022/10/28 02:28:39;;;;;;;8.03;5.85;;;;;;;;;;1783976;80;21053;-60
2022/10/28 02:31:07;;;;;;;10.95;6.33;;;;;;;;;;1784268;80;21061;-60
2022/10/28 02:33:35;;;;;;;8.78;5.95;;;;;;;;;;1783393;80;21104;-60
2022/10/28 02:36:06;;;;;;;11.12;6.03;;;;;;;;;;1721361;83;21082;-60
2022/10/28 02:38:38;;;;;;;10.48;6.20;;;;;;;;;;1711145;83;21042;-60
2022/10/28 02:41:24;;;;;;;14.40;6.60;;;;;;;;;;1730226;82;21059;-60
2022/10/28 02:43:52;;;;;;;10.80;6.10;;;;;;;;;;1699122;83;21547;-60
2022/10/28 02:46:19;;;;;;;9.08;6.12;;;;;;;;;;1714340;84;21056;-60
2022/10/28 02:48:46;;;;;;;9.35;6.00;;;;;;;;;;1714157;84;21068;-60
2022/10/28 02:51:14;;;;;;;9.40;5.92;;;;;;;;;;1714021;84;21068;-60
2022/10/28 02:53:42;;;;;;;9.90;5.97;;;;;;;;;;1714001;83;21028;-60
2022/10/28 02:56:08;;;;;;;11.33;6.40;;;;;;;;;;1710442;84;21650;-59
2022/10/28 02:58:39;;;;;;;12.10;6.22;;;;;;;;;;1685482;85;21083;-60
2022/10/28 03:01:05;;;;;;;10.72;6.03;;;;;;;;;;1685751;85;21402;-59
2022/10/28 03:03:31;;;;;;;9.23;5.45;;;;;;;;;;1676645;84;21147;-59
2022/10/28 03:05:58;;;;;;;9.40;6.00;;;;;;;;;;1695267;82;21047;-61
2022/10/28 03:08:25;;;;;;;11.53;6.40;;;;;;;;;;1695993;84;21072;-60
2022/10/28 03:10:51;;;;;;;11.22;6.47;;;;;;;;;;1696195;84;21090;-59
2022/10/28 03:13:17;;;;;;;8.10;5.78;;;;;;;;;;1696046;84;21095;-60
2022/10/28 03:15:43;;;;;;;10.25;6.10;;;;;;;;;;1695977;84;21015;-60
2022/10/28 03:18:10;;;;;;;9.78;6.62;;;;;;;;;;1696146;84;21086;-60
2022/10/28 03:20:37;;;;;;;8.83;5.97;;;;;;;;;;1695993;84;21016;-59
2022/10/28 03:23:03;;;;;;;9.08;5.62;;;;;;;;;;1696206;84;21079;-59
2022/10/28 03:25:29;;;;;;;10.85;6.33;;;;;;;;;;1696091;84;21094;-59
2022/10/28 03:27:55;;;;;;;9.73;5.90;;;;;;;;;;1696101;84;21036;-60
2022/10/28 03:30:23;;;;;;;10.38;5.60;;;;;;;;;;1695914;84;21107;-60
2022/10/28 03:32:49;;;;;;;8.00;5.75;;;;;;;;;;1696260;84;21122;-61
2022/10/28 03:35:15;;;;;;;10.93;5.87;;;;;;;;;;1695749;84;21020;-60
2022/10/28 03:37:42;;;;;;;11.53;6.22;;;;;;;;;;1696049;84;22256;-61
2022/10/28 03:40:09;;;;;;;8.00;5.75;;;;;;;;;;1696160;84;21098;-59
2022/10/28 03:42:37;;;;;;;10.45;6.83;;;;;;;;;;1696201;84;21727;-59
2022/10/28 03:45:04;;;;;;;13.10;7.03;;;;;;;;;;1703770;83;21039;-59
2022/10/28 03:47:30;;;;;;;7.70;5.78;;;;;;;;;;1666884;86;21046;-60
2022/10/28 03:49:56;;;;;;;10.63;6.42;;;;;;;;;;1677718;84;22134;-60
2022/10/28 03:52:22;;;;;;;10.88;7.25;;;;;;;;;;1696117;84;21107;-60
2022/10/28 03:54:48;;;;;;;8.75;6.20;;;;;;;;;;1685203;84;21087;-60
2022/10/28 03:57:15;;;;;;;10.23;5.95;;;;;;;;;;1686522;84;21063;-60
2022/10/28 03:59:42;;;;;;;11.48;6.17;;;;;;;;;;1695682;84;21082;-60
2022/10/28 04:02:08;;;;;;;9.80;6.42;;;;;;;;;;1696191;84;22079;-60
2022/10/28 04:04:35;;;;;;;9.13;6.08;;;;;;;;;;1691178;81;21075;-60
2022/10/28 04:07:01;;;;;;;8.90;6.58;;;;;;;;;;1673829;86;21617;-61
2022/10/28 04:09:28;;;;;;;10.23;5.58;;;;;;;;;;1674071;86;21092;-61
2022/10/28 04:11:54;;;;;;;12.40;6.45;;;;;;;;;;1674125;86;21079;-60
2022/10/28 04:14:21;;;;;;;10.40;5.92;;;;;;;;;;1673791;85;21582;-59
2022/10/28 04:16:49;;;;;;;8.28;5.20;;;;;;;;;;1674022;85;21131;-60
2022/10/28 04:19:16;;;;;;;13.60;6.50;;;;;;;;;;1673634;85;21100;-60
2022/10/28 04:21:42;;;;;;;10.78;5.50;;;;;;;;;;1683521;85;21083;-60
2022/10/28 04:24:08;;;;;;;8.35;5.60;;;;;;;;;;1683683;85;22286;-59
2022/10/28 04:26:34;;;;;;;8.20;5.45;;;;;;;;;;1675845;85;21032;-61
2022/10/28 04:29:01;;;;;;;7.70;4.95;;;;;;;;;;1673662;86;21119;-61
2022/10/28 04:31:27;;;;;;;8.58;5.55;;;;;;;;;;1675202;84;21074;-61
2022/10/28 04:33:54;;;;;;;11.18;5.45;;;;;;;;;;1673747;85;22189;-61
2022/10/28 04:36:20;;;;;;;8.38;5.35;;;;;;;;;;1683098;85;21087;-62
2022/10/28 04:38:47;;;;;;;11.18;6.12;;;;;;;;;;1688140;85;21087;-61
2022/10/28 04:41:13;;;;;;;9.45;5.42;;;;;;;;;;1683786;85;21589;-61
2022/10/28 04:43:40;;;;;;;11.48;6.08;;;;;;;;;;1673793;86;21033;-62
2022/10/28 04:46:06;;;;;;;8.40;6.12;;;;;;;;;;1673868;85;21113;-60
2022/10/28 04:48:33;;;;;;;8.08;5.95;;;;;;;;;;1673845;85;21101;-63
2022/10/28 04:50:59;;;;;;;9.15;6.22;;;;;;;;;;1676573;85;21071;-62
2022/10/28 04:53:25;;;;;;;9.88;6.50;;;;;;;;;;1688261;85;21091;-61
2022/10/28 04:55:58;;;;;;;8.33;5.58;;;;;;;;;;1679158;85;21099;-61
2022/10/28 04:58:25;;;;;;;7.10;4.78;;;;;;;;;;1673636;86;21622;-61
2022/10/28 05:00:52;;;;;;;9.50;5.80;;;;;;;;;;1675740;85;21029;-60
2022/10/28 05:03:18;;;;;;;7.35;5.15;;;;;;;;;;1687986;83;21563;-62
2022/10/28 05:05:44;;;;;;;10.08;6.47;;;;;;;;;;1707478;83;21134;-60
2022/10/28 05:08:10;;;;;;;9.20;6.47;;;;;;;;;;1721946;83;21056;-60
2022/10/28 05:10:37;;;;;;;9.80;5.97;;;;;;;;;;1721727;83;21059;-61
2022/10/28 05:13:03;;;;;;;9.63;6.25;;;;;;;;;;1720164;83;21033;-60
2022/10/28 05:15:30;;;;;;;12.20;5.40;;;;;;;;;;1720848;83;21028;-61
2022/10/28 05:17:57;;;;;;;8.63;5.40;;;;;;;;;;1711381;82;21066;-60
2022/10/28 05:20:24;;;;;;;10.40;5.85;;;;;;;;;;1717888;83;20951;-60
2022/10/28 05:22:52;;;;;;;13.03;6.35;;;;;;;;;;1718596;83;21110;-61
2022/10/28 05:25:18;;;;;;;9.80;5.97;;;;;;;;;;1722170;82;20988;-60
2022/10/28 05:27:44;;;;;;;9.63;6.20;;;;;;;;;;1721966;83;21125;-59
2022/10/28 05:30:12;;;;;;;8.78;5.30;;;;;;;;;;1719529;82;22254;-59
2022/10/28 05:32:38;;;;;;;10.43;6.22;;;;;;;;;;1721165;83;20971;-59
2022/10/28 05:35:05;;;;;;;10.98;6.60;;;;;;;;;;1721769;82;21028;-60
2022/10/28 05:37:31;;;;;;;13.38;7.42;;;;;;;;;;1721885;82;21048;-59
2022/10/28 05:39:57;;;;;;;13.58;7.75;;;;;;;;;;1724867;82;21467;-60
2022/10/28 05:42:23;;;;;;;12.28;7.53;;;;;;;;;;1720404;82;21569;-61
2022/10/28 05:44:49;;;;;;;11.75;6.92;;;;;;;;;;1718222;82;21093;-59
2022/10/28 05:47:15;;;;;;;11.50;6.20;;;;;;;;;;1721861;83;21002;-59
2022/10/28 05:49:41;;;;;;;11.53;6.35;;;;;;;;;;1722170;82;21013;-60
2022/10/28 05:52:08;;;;;;;11.03;7.05;;;;;;;;;;1722180;83;21067;-60
2022/10/28 05:54:34;;;;;;;12.18;6.85;;;;;;;;;;1721050;83;21097;-60
2022/10/28 05:57:00;;;;;;;11.10;6.65;;;;;;;;;;1721868;82;21068;-61
2022/10/28 05:59:26;;;;;;;13.98;8.25;;;;;;;;;;1720218;82;21018;-60
2022/10/28 06:01:52;;;;;;;13.60;7.40;;;;;;;;;;1721348;83;20998;-61
2022/10/28 06:04:20;;;;;;;16.57;7.90;;;;;;;;;;1722199;82;21058;-60
2022/10/28 06:06:46;;;;;;;15.45;8.63;;;;;;;;;;1721827;82;21028;-60
2022/10/28 06:09:12;;;;;;;14.87;8.48;;;;;;;;;;1720253;83;21059;-60
2022/10/28 06:11:39;;;;;;;11.97;8.70;;;;;;;;;;1720318;83;21060;-60
2022/10/28 06:14:05;;;;;;;16.00;8.45;;;;;;;;;;1720698;83;21156;-60
2022/10/28 06:36:57;;;;;;;16.20;9.75;;;;;;;;;;1787575;80;22248;-59
2022/10/28 06:39:24;;;;;;;15.53;9.58;;;;;;;;;;1743456;81;21534;-59
2022/10/28 06:41:51;;;;;;;14.98;8.30;;;;;;;;;;1746196;81;21074;-59
2022/10/28 06:44:17;;;;;;;15.75;9.40;;;;;;;;;;1721461;83;21116;-59
2022/10/28 06:46:43;;;;;;;15.25;9.68;;;;;;;;;;1760522;81;21490;-59
2022/10/28 06:49:10;;;;;;;13.13;8.95;;;;;;;;;;1741902;81;21063;-59
2022/10/28 06:51:36;;;;;;;14.07;8.95;;;;;;;;;;1741245;81;20995;-60
2022/10/28 06:54:03;;;;;;;15.58;9.08;;;;;;;;;;1738658;81;21074;-60
2022/10/28 06:56:31;;;;;;;14.20;9.50;;;;;;;;;;1752516;81;21553;-59
2022/10/28 06:58:57;;;;;;;15.63;10.38;;;;;;;;;;1733025;83;21098;-60
2022/10/28 07:01:23;;;;;;;13.20;8.08;;;;;;;;;;1736385;80;21053;-60
2022/10/28 07:03:49;;;;;;;18.67;10.98;;;;;;;;;;1752453;80;21039;-60
2022/10/28 07:06:15;;;;;;;13.08;8.63;;;;;;;;;;1749381;80;20972;-60
2022/10/28 07:08:42;;;;;;;12.03;8.20;;;;;;;;;;1746676;80;21022;-60
2022/10/28 07:11:10;;;;;;;15.55;10.05;;;;;;;;;;1748108;80;21024;-60
2022/10/28 07:13:36;;;;;;;14.85;9.28;;;;;;;;;;1752022;80;21050;-60
2022/10/28 07:16:04;;;;;;;16.57;8.70;;;;;;;;;;1749080;81;21039;-60
2022/10/28 07:18:30;;;;;;;14.53;8.00;;;;;;;;;;1753203;80;21043;-60
2022/10/28 07:20:57;;;;;;;12.80;7.92;;;;;;;;;;1741606;80;21043;-60
2022/10/28 07:23:24;;;;;;;13.35;7.97;;;;;;;;;;1755781;81;20992;-60
2022/10/28 07:25:52;;;;;;;13.38;9.15;;;;;;;;;;1740857;81;21107;-60
2022/10/28 07:28:18;;;;;;;13.83;8.40;;;;;;;;;;1758657;81;21570;-60
2022/10/28 07:30:44;;;;;;;11.65;8.25;;;;;;;;;;1734989;81;21057;-60
2022/10/28 07:33:11;;;;;;;13.53;7.65;;;;;;;;;;1766442;80;21034;-60
2022/10/28 07:35:37;;;;;;;13.32;8.68;;;;;;;;;;1762082;80;21032;-60
2022/10/28 07:38:04;;;;;;;15.40;8.90;;;;;;;;;;1766617;81;21094;-60
2022/10/28 07:40:30;;;;;;;15.30;9.63;;;;;;;;;;1761087;81;21530;-60
2022/10/28 07:42:59;;;;;;;13.05;8.38;;;;;;;;;;1756281;81;21020;-61
2022/10/28 07:45:25;;;;;;;13.70;9.83;;;;;;;;;;1756377;81;21073;-59
2022/10/28 07:47:52;;;;;;;14.35;7.95;;;;;;;;;;1758459;81;21045;-60
2022/10/28 07:50:18;;;;;;;12.88;8.65;;;;;;;;;;1759849;81;21082;-59
2022/10/28 07:52:44;;;;;;;11.68;7.60;;;;;;;;;;1737712;81;20978;-60
2022/10/28 07:55:10;;;;;;;13.43;7.90;;;;;;;;;;1722319;83;21019;-61
2022/10/28 07:57:36;;;;;;;13.35;7.33;;;;;;;;;;1756853;80;21043;-59
2022/10/28 08:00:03;;;;;;;13.75;7.97;;;;;;;;;;1749405;81;21055;-60
2022/10/28 08:02:31;;;;;;;11.33;7.12;;;;;;;;;;1748688;81;20997;-61
2022/10/28 08:05:00;;;;;;;11.90;7.25;;;;;;;;;;1743682;81;21051;-60
2022/10/28 08:07:26;;;;;;;13.50;7.95;;;;;;;;;;1755262;81;21035;-60
2022/10/28 08:09:52;;;;;;;11.75;7.08;;;;;;;;;;1743587;81;21039;-59
2022/10/28 08:12:18;;;;;;;12.75;6.85;;;;;;;;;;1732481;81;21203;-60
2022/10/28 08:14:44;;;;;;;10.32;6.47;;;;;;;;;;1739774;80;21003;-61
2022/10/28 08:17:11;;;;;;;11.55;7.08;;;;;;;;;;1741122;80;21527;-60
2022/10/28 08:19:38;;;;;;;10.68;7.17;;;;;;;;;;1735621;81;21067;-60
2022/10/28 08:22:04;;;;;;;10.85;6.75;;;;;;;;;;1732219;81;21051;-61
2022/10/28 08:24:31;;;;;;;7.95;5.42;;;;;;;;;;1744242;81;21055;-61
2022/10/28 08:26:57;;;;;;;8.85;5.50;;;;;;;;;;1728348;83;21064;-61
2022/10/28 08:29:23;;;;;;;11.53;6.75;;;;;;;;;;1742479;82;21013;-60
2022/10/28 08:31:50;;;;;;;9.53;5.22;;;;;;;;;;1766288;80;21091;-61
2022/10/28 08:34:16;;;;;;;10.32;5.53;;;;;;;;;;1734396;81;21084;-60
2022/10/28 08:36:43;;;;;;;8.88;5.42;;;;;;;;;;1743727;81;21037;-60
2022/10/28 08:39:09;;;;;;;6.83;4.50;;;;;;;;;;1752286;81;21065;-60
2022/10/28 08:41:46;;;;;;;8.55;4.83;;;;;;;;;;1730125;81;21020;-61
2022/10/28 08:44:33;;;;;;;6.42;5.12;;;;;;;;;;1735774;81;21032;-61
2022/10/28 08:47:07;;;;;;;7.40;4.87;;;;;;;;;;1749459;80;21047;-60
2022/10/28 08:49:33;;;;;;;5.85;4.22;;;;;;;;;;1734923;80;20996;-60
2022/10/28 08:52:02;;;;;;;10.32;5.58;;;;;;;;;;1730073;80;21053;-60
2022/10/28 08:54:36;;;;;;;9.43;5.60;;;;;;;;;;1740213;81;21027;-60
2022/10/28 08:57:03;;;;;;;8.03;5.40;;;;;;;;;;1744529;81;21016;-60
2022/10/28 08:59:36;;;;;;;6.67;4.47;;;;;;;;;;1739971;81;21040;-60
2022/10/28 09:02:04;;;;;;;8.58;3.92;;;;;;;;;;1733776;81;21071;-59
2022/10/28 09:04:38;;;;;;;6.75;4.33;;;;;;;;;;1749559;81;21086;-60
2022/10/28 09:07:05;;;;;;;6.55;4.40;;;;;;;;;;1744733;80;21025;-59
2022/10/28 09:09:33;;;;;;;6.72;3.55;;;;;;;;;;1739682;80;21048;-59
2022/10/28 09:12:10;;;;;;;6.97;4.28;;;;;;;;;;1746244;81;21035;-59
2022/10/28 09:14:44;;;;;;;9.08;4.40;;;;;;;;;;1735368;81;21083;-60
2022/10/28 09:17:15;;;;;;;6.37;4.17;;;;;;;;;;1751422;81;21043;-61
2022/10/28 09:19:48;;;;;;;5.53;3.75;;;;;;;;;;1738418;81;21019;-61
2022/10/28 09:22:22;;;;;;;6.78;3.98;;;;;;;;;;1755141;81;21044;-61
2022/10/28 09:24:53;;;;;;;5.45;3.22;;;;;;;;;;1761735;80;20980;-60
2022/10/28 09:39:16;;;;;;;4.05;2.77;;;;;;;;;;1781342;79;22452;-60
2022/10/28 09:41:42;;;;;;;5.65;3.55;;;;;;;;;;1770074;80;21039;-60
2022/10/28 09:44:13;;;;;;;7.10;3.42;;;;;;;;;;1778423;80;21008;-60
2022/10/28 09:46:40;;;;;;;7.42;3.85;;;;;;;;;;1767949;80;21055;-60
2022/10/28 09:49:11;;;;;;;7.22;3.47;;;;;;;;;;1758763;81;21026;-60
2022/10/28 09:51:42;;;;;;;4.08;3.17;;;;;;;;;;1753119;81;21046;-60
2022/10/28 09:54:07;;;;;;;5.08;3.10;;;;;;;;;;1733470;82;21044;-60
2022/10/28 09:56:33;;;;;;;3.70;2.52;;;;;;;;;;1730531;82;21084;-61
2022/10/28 09:59:01;;;;;;;6.72;2.60;;;;;;;;;;1735566;82;21052;-59
2022/10/28 10:01:32;;;;;;;4.60;2.87;;;;;;;;;;1735088;82;21168;-60
2022/10/28 10:03:59;;;;;;;4.03;2.35;;;;;;;;;;1734853;82;21028;-60
2022/10/28 10:06:28;;;;;;;4.62;2.80;;;;;;;;;;1736004;82;21133;-60
2022/10/28 10:08:55;;;;;;;2.70;2.05;;;;;;;;;;1735919;82;21090;-61
2022/10/28 10:11:26;;;;;;;2.70;2.12;;;;;;;;;;1736819;82;21039;-61
2022/10/28 10:13:53;;;;;;;4.58;2.80;;;;;;;;;;1736247;82;21043;-61
2022/10/28 10:16:27;;;;;;;4.72;2.45;;;;;;;;;;1735927;82;21029;-60
2022/10/28 10:18:53;;;;;;;3.70;2.33;;;;;;;;;;1735806;82;21168;-60
2022/10/28 10:21:38;;;;;;;4.35;2.37;;;;;;;;;;1736566;82;21508;-60
2022/10/28 10:24:06;;;;;;;4.80;2.70;;;;;;;;;;1736438;82;21028;-60
2022/10/28 10:26:33;;;;;;;3.80;2.85;;;;;;;;;;1728471;82;21083;-60
2022/10/28 10:28:59;;;;;;;4.87;2.75;;;;;;;;;;1709669;82;21124;-59
2022/10/28 10:31:25;;;;;;;4.92;2.47;;;;;;;;;;1686537;84;21059;-60
2022/10/28 10:33:52;;;;;;;3.10;2.30;;;;;;;;;;1702500;83;21048;-60
2022/10/28 10:36:22;;;;;;;3.42;2.33;;;;;;;;;;1655986;86;21536;-60
2022/10/28 10:38:51;;;;;;;3.72;2.35;;;;;;;;;;1670422;84;21033;-61
2022/10/28 10:41:37;;;;;;;3.77;2.33;;;;;;;;;;1649503;87;21080;-60
2022/10/28 10:44:12;;;;;;;4.05;2.50;;;;;;;;;;1632253;87;21007;-60
2022/10/28 10:46:39;;;;;;;3.83;2.60;;;;;;;;;;1657679;86;21179;-61
2022/10/28 10:49:06;;;;;;;4.70;2.60;;;;;;;;;;1692849;83;21016;-61
2022/10/28 10:51:33;;;;;;;4.75;2.90;;;;;;;;;;1720876;83;21052;-61
2022/10/28 10:54:01;;;;;;;3.58;2.30;;;;;;;;;;1720594;83;21562;-61
2022/10/28 10:56:30;;;;;;;4.25;2.35;;;;;;;;;;1699792;83;21068;-60
2022/10/28 10:59:01;;;;;;;6.80;4.17;;;;;;;;;;1693320;84;21029;-60
2022/10/28 11:01:29;;;;;;;4.05;2.60;;;;;;;;;;1650382;87;21051;-59
2022/10/28 11:04:00;;;;;;;3.33;2.50;;;;;;;;;;1670376;86;21052;-61
2022/10/28 11:06:29;;;;;;;5.05;2.55;;;;;;;;;;1663932;86;21096;-60
2022/10/28 11:08:57;;;;;;;3.67;2.30;;;;;;;;;;1691414;84;21064;-60
2022/10/28 11:11:31;;;;;;;3.52;2.40;;;;;;;;;;1696958;84;21544;-60
2022/10/28 11:14:05;;;;;;;4.03;2.15;;;;;;;;;;1664494;86;21062;-59
2022/10/28 11:16:32;;;;;;;3.12;2.40;;;;;;;;;;1691366;84;21494;-60
2022/10/28 11:18:59;;;;;;;3.80;2.20;;;;;;;;;;1692625;84;21040;-60
2022/10/28 11:21:30;;;;;;;3.20;2.30;;;;;;;;;;1657972;86;21063;-59
2022/10/28 11:24:04;;;;;;;3.47;2.30;;;;;;;;;;1654223;86;21057;-60
2022/10/28 11:26:31;;;;;;;4.12;2.20;;;;;;;;;;1674155;85;21127;-61
2022/10/28 11:29:10;;;;;;;3.37;2.37;;;;;;;;;;1673902;85;21119;-61
2022/10/28 11:31:39;;;;;;;4.95;3.20;;;;;;;;;;1676346;84;21056;-60
2022/10/28 11:34:19;;;;;;;3.47;2.27;;;;;;;;;;1672113;85;21031;-61
2022/10/28 11:36:51;;;;;;;6.03;2.85;;;;;;;;;;1691975;83;21046;-60
2022/10/28 11:39:31;;;;;;;3.02;2.30;;;;;;;;;;1701287;83;21081;-60
2022/10/28 11:42:16;;;;;;;5.37;3.20;;;;;;;;;;1690508;83;21092;-61
2022/10/28 11:44:44;;;;;;;3.77;2.40;;;;;;;;;;1689620;84;21511;-60
2022/10/28 11:47:15;;;;;;;3.08;2.45;;;;;;;;;;1696526;84;21056;-61
2022/10/28 11:49:57;;;;;;;4.65;2.70;;;;;;;;;;1688954;84;21552;-60
2022/10/28 11:52:22;;;;;;;6.40;2.35;;;;;;;;;;1657677;86;21563;-61
2022/10/28 11:54:56;;;;;;;5.50;2.58;;;;;;;;;;1687165;84;21046;-61
2022/10/28 11:57:33;;;;;;;5.80;2.98;;;;;;;;;;1657362;86;21021;-60
2022/10/28 12:00:04;;;;;;;6.12;2.52;;;;;;;;;;1663393;86;21549;-61
2022/10/28 12:02:38;;;;;;;4.60;2.72;;;;;;;;;;1664557;86;21009;-61
2022/10/28 12:05:06;;;;;;;3.98;2.55;;;;;;;;;;1680312;84;21111;-61
2022/10/28 12:07:40;;;;;;;3.77;2.58;;;;;;;;;;1655894;86;21647;-61
2022/10/28 12:10:27;;;;;;;3.95;2.67;;;;;;;;;;1650305;84;21087;-60
2022/10/28 12:13:12;;;;;;;5.85;3.12;;;;;;;;;;1647099;85;21140;-59
2022/10/28 12:15:49;;;;;;;4.80;3.08;;;;;;;;;;1667962;86;21053;-59
2022/10/28 12:18:23;;;;;;;4.33;2.92;;;;;;;;;;1690206;84;21076;-60
2022/10/28 12:21:04;;;;;;;4.83;3.27;;;;;;;;;;1692105;84;21024;-61
2022/10/28 12:23:31;;;;;;;6.25;4.00;;;;;;;;;;1689723;84;21058;-61
2022/10/28 12:25:57;;;;;;;9.18;5.83;;;;;;;;;;1687561;83;21016;-60
2022/10/28 12:28:25;;;;;;;11.03;7.22;;;;;;;;;;1684685;83;21124;-60
2022/10/28 12:30:52;;;;;;;6.37;3.77;;;;;;;;;;1661292;85;21023;-61
2022/10/28 12:33:22;;;;;;;5.17;3.15;;;;;;;;;;1662111;84;21128;-62
2022/10/28 12:35:50;;;;;;;5.90;3.70;;;;;;;;;;1692685;84;21095;-60
2022/10/28 12:38:18;;;;;;;10.05;6.25;;;;;;;;;;1690949;83;21139;-61
2022/10/28 12:40:45;;;;;;;9.38;5.60;;;;;;;;;;1688867;83;21025;-60
2022/10/28 12:43:14;;;;;;;7.15;4.67;;;;;;;;;;1673207;84;21056;-60
2022/10/28 12:45:41;;;;;;;9.70;5.40;;;;;;;;;;1645227;85;21056;-60
2022/10/28 12:48:22;;;;;;;9.05;6.28;;;;;;;;;;1694299;84;21048;-60
2022/10/28 12:50:50;;;;;;;9.70;4.62;;;;;;;;;;1697748;84;22140;-60
2022/10/28 12:53:33;;;;;;;6.20;3.98;;;;;;;;;;1670765;86;21075;-60
2022/10/28 12:56:00;;;;;;;5.53;3.55;;;;;;;;;;1670918;84;21197;-60
2022/10/28 12:58:45;;;;;;;7.80;3.92;;;;;;;;;;1693797;84;21511;-61
2022/10/28 13:01:12;;;;;;;4.25;3.47;;;;;;;;;;1666945;86;21525;-61
2022/10/28 13:03:39;;;;;;;4.85;3.30;;;;;;;;;;1672248;84;21065;-61
2022/10/28 13:06:15;;;;;;;5.47;2.80;;;;;;;;;;1681347;84;22315;-61
2022/10/28 13:08:47;;;;;;;4.05;2.70;;;;;;;;;;1667087;84;21053;-61
2022/10/28 13:11:21;;;;;;;4.00;2.77;;;;;;;;;;1669912;86;21013;-60
2022/10/28 13:14:04;;;;;;;4.95;2.95;;;;;;;;;;1678710;84;21156;-62
2022/10/28 13:29:54;;;;;;;4.62;3.27;;;;;;;;;;1782712;79;22919;-60
2022/10/28 13:32:31;;;;;;;6.35;3.58;;;;;;;;;;1791093;78;21011;-60
2022/10/28 13:34:58;;;;;;;5.42;3.10;;;;;;;;;;1790671;80;21562;-60
2022/10/28 13:37:25;;;;;;;5.15;3.10;;;;;;;;;;1792985;78;21037;-61
2022/10/28 13:39:51;;;;;;;5.83;3.27;;;;;;;;;;1793671;80;21583;-58
2022/10/28 13:42:22;;;;;;;7.80;3.70;;;;;;;;;;1793347;78;20969;-58
2022/10/28 13:44:49;;;;;;;5.05;3.40;;;;;;;;;;1792989;80;21023;-58
2022/10/28 13:47:17;;;;;;;9.18;4.20;;;;;;;;;;1799076;78;21050;-58
2022/10/28 13:50:02;;;;;;;9.40;4.50;;;;;;;;;;1817483;78;21083;-60
2022/10/28 13:52:30;;;;;;;10.65;5.25;;;;;;;;;;1795003;78;21670;-59
2022/10/28 13:55:01;;;;;;;12.25;6.25;;;;;;;;;;1793586;80;21038;-59
2022/10/28 13:57:27;;;;;;;12.10;6.10;;;;;;;;;;1792515;80;20984;-59
2022/10/28 13:59:58;;;;;;;10.98;5.25;;;;;;;;;;1794404;78;21491;-59
2022/10/28 14:02:36;;;;;;;8.43;4.30;;;;;;;;;;1795437;78;20975;-60
2022/10/28 14:05:04;;;;;;;6.60;3.80;;;;;;;;;;1793063;78;21055;-59
2022/10/28 14:07:31;;;;;;;5.65;3.85;;;;;;;;;;1790672;78;21043;-59
2022/10/28 14:10:00;;;;;;;6.45;4.20;;;;;;;;;;1795274;78;21056;-59
2022/10/28 14:12:31;;;;;;;5.78;4.05;;;;;;;;;;1790121;78;22054;-60
2022/10/28 14:15:03;;;;;;;9.38;4.58;;;;;;;;;;1806286;78;21156;-60
2022/10/28 14:17:33;;;;;;;6.70;3.95;;;;;;;;;;1793380;78;21248;-60
2022/10/28 14:19:59;;;;;;;8.43;4.65;;;;;;;;;;1811548;78;21060;-60
2022/10/28 14:22:32;;;;;;;9.03;4.33;;;;;;;;;;1793832;79;20996;-60
2022/10/28 14:24:59;;;;;;;;;;;;;;;;;;1799398;78;21495;-60
2022/10/28 14:27:29;;;;;;;8.20;4.37;;;;;;;;;;1803392;78;20419;-60
2022/10/28 14:29:58;;;;;;;9.30;5.42;;;;;;;;;;1789840;78;21050;-60
2022/10/28 14:32:30;;;;;;;8.38;5.15;;;;;;;;;;1799985;78;21102;-60
2022/10/28 14:35:15;;;;;;;7.42;5.20;;;;;;;;;;1794077;78;20977;-61
2022/10/28 14:37:57;;;;;;;9.53;5.53;;;;;;;;;;1789095;79;21039;-61
2022/10/28 14:40:24;;;;;;;;;;;;;;;;;;1771592;78;21012;-61
2022/10/28 14:42:54;;;;;;;9.75;5.03;;;;;;;;;;1793819;79;20156;-60
2022/10/28 14:45:28;;;;;;;7.42;4.58;;;;;;;;;;1793554;78;21023;-60
2022/10/28 14:47:59;;;;;;;7.55;4.92;;;;;;;;;;1788900;78;21539;-59
2022/10/28 14:50:27;;;;;;;6.55;4.30;;;;;;;;;;1791363;78;21095;-60
2022/10/28 14:52:53;;;;;;;6.75;4.75;;;;;;;;;;1796751;78;21032;-59
2022/10/28 14:55:21;;;;;;;8.25;4.90;;;;;;;;;;1796690;79;21046;-60
2022/10/28 14:57:48;;;;;;;7.65;4.83;;;;;;;;;;1795432;78;22170;-59
2022/10/28 15:00:16;;;;;;;9.23;5.62;;;;;;;;;;1791727;78;21040;-59
2022/10/28 15:02:42;;;;;;;9.00;5.75;;;;;;;;;;1795421;78;21036;-59
2022/10/28 15:05:16;;;;;;;8.45;5.12;;;;;;;;;;1792368;78;21035;-59
2022/10/28 15:07:42;;;;;;;12.40;7.58;;;;;;;;;;1792756;80;21055;-59
2022/10/28 15:10:13;;;;;;;14.90;9.88;;;;;;;;;;1788268;80;21069;-61
2022/10/28 15:12:39;;;;;;;10.13;6.10;;;;;;;;;;1792908;80;21546;-60
2022/10/28 15:15:16;;;;;;;8.33;5.60;;;;;;;;;;1791932;79;21011;-60
2022/10/28 15:17:42;;;;;;;9.10;5.62;;;;;;;;;;1795564;78;21156;-58
2022/10/28 15:20:27;;;;;;;12.37;4.83;;;;;;;;;;1755946;80;21036;-58
2022/10/28 15:22:56;;;;;;;7.67;4.87;;;;;;;;;;1762906;80;21064;-59
2022/10/28 15:25:22;;;;;;;10.15;5.55;;;;;;;;;;1786314;80;21472;-59
2022/10/28 15:27:50;;;;;;;9.08;5.42;;;;;;;;;;1760071;80;21075;-60
2022/10/28 15:30:19;;;;;;;11.08;5.55;;;;;;;;;;1751577;80;21063;-58
2022/10/28 15:32:46;;;;;;;7.85;5.67;;;;;;;;;;1727166;82;21084;-58
2022/10/28 15:35:31;;;;;;;9.43;6.08;;;;;;;;;;1758380;80;21000;-59
2022/10/28 15:37:59;;;;;;;12.18;6.60;;;;;;;;;;1754356;80;21030;-59
2022/10/28 15:40:32;;;;;;;9.75;6.55;;;;;;;;;;1753536;80;20985;-59